This is the latest recevied weather packets stored in our database for station/object KD2FKI. If no packets are shown the sender has not sent any weather packets the latest 10 day(s).
| Time | Temp. | Humidity | Pressure | Rain* | Wind** | Luminosity | Snow |
|---|---|---|---|---|---|---|---|
| 1778179845 | 20.56° C | 38% | - | 0 mm | - | - | - |
| 1778179235 | 20.56° C | 39% | - | 0 mm | - | - | - |
| 1778178663 | 20.56° C | 38% | - | 0 mm | - | - | - |
| 1778178032 | 21.11° C | 38% | - | 0 mm | - | - | - |
| 1778177440 | 21.11° C | 38% | - | 0 mm | - | - | - |
| 1778176830 | 20.56° C | 40% | - | 0 mm | - | - | - |
| 1778176238 | 20.56° C | 40% | - | 0 mm | - | - | - |
| 1778175646 | 20° C | 43% | - | 0 mm | - | - | - |
| 1778175036 | 20.56° C | 44% | - | 0 mm | - | - | - |
| 1778174443 | 20° C | 45% | - | 0 mm | - | - | - |
| 1778173833 | 19.44° C | 47% | - | 0 mm | - | - | - |
| 1778173243 | 18.33° C | 48% | - | 0 mm | - | - | - |
| 1778172630 | 18.33° C | 48% | - | 0 mm | - | - | - |
| 1778172056 | 17.78° C | 49% | - | 0 mm | - | - | - |
| 1778171447 | 17.22° C | 50% | - | 0 mm | - | - | - |
| 1778170835 | 16.67° C | 50% | - | 0 mm | - | - | - |
| 1778170262 | 16.67° C | 51% | - | 0 mm | - | - | - |
| 1778169653 | 15° C | 56% | - | 0 mm | - | - | - |
| 1778169097 | 14.44° C | 54% | - | 0 mm | - | - | - |
| 1778168431 | 14.44° C | 55% | - | 0 mm | - | - | - |
| 1778167840 | 13.89° C | 57% | - | 0 mm | - | - | - |
| 1778167246 | 13.89° C | 56% | - | 0 mm | - | - | - |
| 1778166638 | 13.89° C | 56% | - | 0 mm | - | - | - |
| 1778166045 | 13.89° C | 57% | - | 0 mm | - | - | - |
| 1778165452 | 13.89° C | 59% | - | 0 mm | - | - | - |
* Rain latest hour (hover to see other rain measurements)
** Current wind speed in m/s (hover to see current wind gust speed)